sensor_id;sensor_type;location;lat;lon;timestamp;temperature;humidity
29207;DHT22;16247;50.840;4.382;2023-07-09T03:37:11;24.70;99.90
29207;DHT22;16247;50.840;4.382;2023-07-09T03:39:59;24.50;99.90
29207;DHT22;16247;50.840;4.382;2023-07-09T03:42:43;24.50;99.90
29207;DHT22;16247;50.840;4.382;2023-07-09T03:45:41;24.60;99.90
29207;DHT22;16247;50.840;4.382;2023-07-09T03:48:09;24.60;99.90
29207;DHT22;16247;50.840;4.382;2023-07-09T03:50:44;24.70;99.90
29207;DHT22;16247;50.840;4.382;2023-07-09T04:00:34;24.80;99.90
29207;DHT22;16247;50.840;4.382;2023-07-09T05:09:24;24.70;99.90
29207;DHT22;16247;50.840;4.382;2023-07-09T05:18:53;24.80;99.90
29207;DHT22;16247;50.840;4.382;2023-07-09T05:21:19;24.80;99.90
29207;DHT22;16247;50.840;4.382;2023-07-09T05:23:45;24.90;99.90
29207;DHT22;16247;50.840;4.382;2023-07-09T05:26:11;25.00;99.90
29207;DHT22;16247;50.840;4.382;2023-07-09T05:28:36;24.90;99.90
29207;DHT22;16247;50.840;4.382;2023-07-09T05:31:03;25.20;99.90
29207;DHT22;16247;50.840;4.382;2023-07-09T05:33:29;25.10;99.90
29207;DHT22;16247;50.840;4.382;2023-07-09T05:35:54;25.30;99.90
29207;DHT22;16247;50.840;4.382;2023-07-09T05:38:21;25.20;99.90
29207;DHT22;16247;50.840;4.382;2023-07-09T05:40:47;25.20;99.90
29207;DHT22;16247;50.840;4.382;2023-07-09T05:43:12;25.20;99.90
29207;DHT22;16247;50.840;4.382;2023-07-09T05:45:39;25.20;99.90
29207;DHT22;16247;50.840;4.382;2023-07-09T05:48:05;25.20;99.90
29207;DHT22;16247;50.840;4.382;2023-07-09T05:50:33;25.20;99.90
29207;DHT22;16247;50.840;4.382;2023-07-09T05:52:59;25.30;99.90
29207;DHT22;16247;50.840;4.382;2023-07-09T05:55:25;25.30;99.90
29207;DHT22;16247;50.840;4.382;2023-07-09T05:57:52;25.40;99.90
29207;DHT22;16247;50.840;4.382;2023-07-09T06:00:19;25.40;99.90
29207;DHT22;16247;50.840;4.382;2023-07-09T06:02:44;25.10;99.90
29207;DHT22;16247;50.840;4.382;2023-07-09T06:05:10;25.20;99.90
29207;DHT22;16247;50.840;4.382;2023-07-09T06:07:37;25.20;99.90
29207;DHT22;16247;50.840;4.382;2023-07-09T06:10:04;25.20;99.90
29207;DHT22;16247;50.840;4.382;2023-07-09T06:12:30;25.20;99.90
29207;DHT22;16247;50.840;4.382;2023-07-09T06:14:56;25.20;99.90
29207;DHT22;16247;50.840;4.382;2023-07-09T06:17:22;25.20;99.90
29207;DHT22;16247;50.840;4.382;2023-07-09T06:22:24;25.30;99.90
29207;DHT22;16247;50.840;4.382;2023-07-09T06:24:50;25.50;99.90
29207;DHT22;16247;50.840;4.382;2023-07-09T06:27:16;25.50;99.90
29207;DHT22;16247;50.840;4.382;2023-07-09T06:29:45;25.40;99.90
29207;DHT22;16247;50.840;4.382;2023-07-09T06:32:13;25.30;99.90
29207;DHT22;16247;50.840;4.382;2023-07-09T06:35:01;25.20;99.90
29207;DHT22;16247;50.840;4.382;2023-07-09T06:37:30;25.50;99.90
29207;DHT22;16247;50.840;4.382;2023-07-09T06:40:00;25.20;99.90
29207;DHT22;16247;50.840;4.382;2023-07-09T06:42:47;25.10;99.90
29207;DHT22;16247;50.840;4.382;2023-07-09T06:45:17;25.30;99.90
29207;DHT22;16247;50.840;4.382;2023-07-09T06:47:56;25.20;99.90
29207;DHT22;16247;50.840;4.382;2023-07-09T06:50:23;25.20;99.90
29207;DHT22;16247;50.840;4.382;2023-07-09T06:52:57;25.20;99.90
29207;DHT22;16247;50.840;4.382;2023-07-09T06:55:25;25.30;99.90
29207;DHT22;16247;50.840;4.382;2023-07-09T06:58:20;25.40;99.90
29207;DHT22;16247;50.840;4.382;2023-07-09T07:00:55;25.40;99.90
29207;DHT22;16247;50.840;4.382;2023-07-09T07:03:29;25.40;99.90
29207;DHT22;16247;50.840;4.382;2023-07-09T07:06:12;25.30;99.90
29207;DHT22;16247;50.840;4.382;2023-07-09T07:08:53;25.20;99.90
29207;DHT22;16247;50.840;4.382;2023-07-09T07:11:35;25.30;99.90
29207;DHT22;16247;50.840;4.382;2023-07-09T07:14:09;25.40;99.90
29207;DHT22;16247;50.840;4.382;2023-07-09T07:19:54;25.40;99.90
29207;DHT22;16247;50.840;4.382;2023-07-09T07:25:44;25.70;99.90
29207;DHT22;16247;50.840;4.382;2023-07-09T07:31:43;25.60;99.90
29207;DHT22;16247;50.840;4.382;2023-07-09T07:37:34;25.80;99.90
29207;DHT22;16247;50.840;4.382;2023-07-09T07:40:09;25.90;99.90
29207;DHT22;16247;50.840;4.382;2023-07-09T07:42:50;25.80;99.90
29207;DHT22;16247;50.840;4.382;2023-07-09T07:45:20;25.90;99.90
29207;DHT22;16247;50.840;4.382;2023-07-09T07:48:01;25.90;99.90
29207;DHT22;16247;50.840;4.382;2023-07-09T07:50:33;26.00;99.90
29207;DHT22;16247;50.840;4.382;2023-07-09T07:56:25;26.00;99.90
29207;DHT22;16247;50.840;4.382;2023-07-09T08:02:30;26.20;99.90
29207;DHT22;16247;50.840;4.382;2023-07-09T08:05:38;26.40;99.90
29207;DHT22;16247;50.840;4.382;2023-07-09T08:08:13;26.30;99.90
29207;DHT22;16247;50.840;4.382;2023-07-09T08:10:46;26.40;99.90
29207;DHT22;16247;50.840;4.382;2023-07-09T08:13:23;26.50;99.90
29207;DHT22;16247;50.840;4.382;2023-07-09T08:19:24;26.70;99.90
29207;DHT22;16247;50.840;4.382;2023-07-09T08:22:10;26.40;99.90
29207;DHT22;16247;50.840;4.382;2023-07-09T08:34:40;26.70;99.90
29207;DHT22;16247;50.840;4.382;2023-07-09T08:40:30;26.80;99.90
29207;DHT22;16247;50.840;4.382;2023-07-09T08:46:45;27.10;99.90
29207;DHT22;16247;50.840;4.382;2023-07-09T08:52:50;27.50;99.90
29207;DHT22;16247;50.840;4.382;2023-07-09T09:12:28;27.70;99.90
29207;DHT22;16247;50.840;4.382;2023-07-09T09:15:29;28.10;99.90
29207;DHT22;16247;50.840;4.382;2023-07-09T09:18:23;28.10;99.90
29207;DHT22;16247;50.840;4.382;2023-07-09T09:21:13;28.40;99.90
29207;DHT22;16247;50.840;4.382;2023-07-09T09:24:03;28.00;99.90
29207;DHT22;16247;50.840;4.382;2023-07-09T09:29:25;28.30;99.90
29207;DHT22;16247;50.840;4.382;2023-07-09T09:34:29;28.50;99.90
29207;DHT22;16247;50.840;4.382;2023-07-09T09:45:37;28.80;99.90
29207;DHT22;16247;50.840;4.382;2023-07-09T09:51:45;28.70;99.90
29207;DHT22;16247;50.840;4.382;2023-07-09T10:24:45;29.20;99.90
29207;DHT22;16247;50.840;4.382;2023-07-09T10:33:12;29.30;99.90
29207;DHT22;16247;50.840;4.382;2023-07-09T10:39:31;29.30;99.90
29207;DHT22;16247;50.840;4.382;2023-07-09T10:42:04;29.40;99.90
29207;DHT22;16247;50.840;4.382;2023-07-09T10:47:55;29.00;99.90
29207;DHT22;16247;50.840;4.382;2023-07-09T10:50:55;28.80;99.90
29207;DHT22;16247;50.840;4.382;2023-07-09T10:53:48;28.60;99.90
29207;DHT22;16247;50.840;4.382;2023-07-09T10:59:46;27.90;99.90
29207;DHT22;16247;50.840;4.382;2023-07-09T11:02:32;28.10;99.90
29207;DHT22;16247;50.840;4.382;2023-07-09T11:15:27;28.60;99.90
29207;DHT22;16247;50.840;4.382;2023-07-09T11:21:14;28.50;99.90
29207;DHT22;16247;50.840;4.382;2023-07-09T11:32:22;28.30;99.90
29207;DHT22;16247;50.840;4.382;2023-07-09T13:13:22;24.80;99.90
29207;DHT22;16247;50.840;4.382;2023-07-09T13:16:01;24.90;99.90
29207;DHT22;16247;50.840;4.382;2023-07-09T13:18:29;24.80;99.90
29207;DHT22;16247;50.840;4.382;2023-07-09T13:20:59;24.90;99.90
29207;DHT22;16247;50.840;4.382;2023-07-09T13:24:40;24.90;99.90
29207;DHT22;16247;50.840;4.382;2023-07-09T13:27:57;24.80;99.90
29207;DHT22;16247;50.840;4.382;2023-07-09T13:30:26;24.80;99.90
29207;DHT22;16247;50.840;4.382;2023-07-09T13:33:54;24.70;99.90
29207;DHT22;16247;50.840;4.382;2023-07-09T13:37:04;24.80;99.90
29207;DHT22;16247;50.840;4.382;2023-07-09T13:40:33;24.70;99.90
29207;DHT22;16247;50.840;4.382;2023-07-09T13:43:46;24.50;99.90
29207;DHT22;16247;50.840;4.382;2023-07-09T13:46:45;24.70;99.90
29207;DHT22;16247;50.840;4.382;2023-07-09T13:49:45;24.50;99.90
29207;DHT22;16247;50.840;4.382;2023-07-09T13:52:39;24.60;99.90
29207;DHT22;16247;50.840;4.382;2023-07-09T13:58:41;24.60;99.90
29207;DHT22;16247;50.840;4.382;2023-07-09T14:01:57;24.70;99.90
29207;DHT22;16247;50.840;4.382;2023-07-09T14:08:07;24.70;99.90
29207;DHT22;16247;50.840;4.382;2023-07-09T14:11:34;24.80;99.90
29207;DHT22;16247;50.840;4.382;2023-07-09T14:14:36;25.10;99.90
29207;DHT22;16247;50.840;4.382;2023-07-09T14:18:04;25.10;99.90
29207;DHT22;16247;50.840;4.382;2023-07-09T14:21:22;25.40;99.90
29207;DHT22;16247;50.840;4.382;2023-07-09T14:24:32;25.40;99.90
29207;DHT22;16247;50.840;4.382;2023-07-09T14:45:57;26.50;99.90
29207;DHT22;16247;50.840;4.382;2023-07-09T14:49:00;26.50;99.90
29207;DHT22;16247;50.840;4.382;2023-07-09T15:10:16;26.70;99.90
29207;DHT22;16247;50.840;4.382;2023-07-09T15:13:36;26.60;99.90
29207;DHT22;16247;50.840;4.382;2023-07-09T15:19:50;26.80;99.90
29207;DHT22;16247;50.840;4.382;2023-07-09T16:34:58;26.50;99.90
29207;DHT22;16247;50.840;4.382;2023-07-09T17:39:21;23.80;99.90
29207;DHT22;16247;50.840;4.382;2023-07-09T19:40:27;22.70;99.90
